Time;durP1;ratioP1;P1;durP2;ratioP2;P2;SDS_P1;SDS_P2;PMS_P1;PMS_P2;Temp;Humidity;BMP_temperature;BMP_pressure;BME280_temperature;BME280_humidity;BME280_pressure;Samples;Min_cycle;Max_cycle;Signal;HPM_P1;HPM_P2
2021/12/21 00:01:08;;;;;;;9.50;3.80;;;3.10;96.70;;;;;;5074797;28;20052;-78
2021/12/21 00:03:33;;;;;;;10.82;4.45;;;3.10;96.70;;;;;;5092837;28;20024;-77
2021/12/21 00:05:59;;;;;;;9.10;4.05;;;3.10;96.70;;;;;;5092890;28;20097;-77
2021/12/21 00:08:25;;;;;;;8.00;3.97;;;3.10;96.70;;;;;;5092889;28;20060;-77
2021/12/21 00:10:50;;;;;;;15.48;4.20;;;3.10;96.70;;;;;;5074867;28;20024;-75
2021/12/21 00:21:06;;;;;;;10.65;3.88;;;3.00;96.70;;;;;;5092772;28;20034;-78
2021/12/21 00:23:35;;;;;;;8.85;3.67;;;3.00;96.70;;;;;;5094564;28;20051;-77
2021/12/21 00:26:16;;;;;;;8.85;4.22;;;3.00;96.70;;;;;;5097109;28;20044;-77
2021/12/21 00:31:12;;;;;;;8.93;4.32;;;3.00;96.60;;;;;;5096459;28;20028;-77
2021/12/21 00:33:40;;;;;;;9.68;4.10;;;3.00;96.70;;;;;;5096099;28;20108;-77
2021/12/21 00:36:07;;;;;;;9.40;3.92;;;2.90;96.70;;;;;;5096364;28;20016;-77
2021/12/21 00:38:33;;;;;;;6.43;3.88;;;2.90;96.70;;;;;;5078015;28;20493;-77
2021/12/21 00:40:59;;;;;;;8.98;3.45;;;2.90;96.70;;;;;;5077680;28;20454;-77
2021/12/21 00:43:24;;;;;;;6.70;3.88;;;2.90;96.70;;;;;;5095961;28;20050;-77
2021/12/21 00:45:50;;;;;;;12.10;4.10;;;2.90;96.70;;;;;;5077874;28;20104;-78
2021/12/21 00:48:16;;;;;;;7.40;4.03;;;2.90;96.70;;;;;;5096210;28;20024;-78
2021/12/21 00:50:43;;;;;;;8.15;4.32;;;2.90;96.70;;;;;;5096085;28;20016;-78
2021/12/21 00:53:08;;;;;;;10.15;4.35;;;2.90;96.70;;;;;;5095965;28;20036;-77
2021/12/21 00:55:34;;;;;;;8.15;3.92;;;2.80;96.70;;;;;;5078335;28;20147;-77
2021/12/21 00:58:00;;;;;;;6.80;3.55;;;2.80;96.70;;;;;;5078413;28;20012;-77
2021/12/21 01:00:26;;;;;;;7.07;4.05;;;2.80;96.80;;;;;;5077593;28;20047;-77
2021/12/21 01:02:52;;;;;;;6.75;3.67;;;2.80;96.80;;;;;;5095875;28;20107;-77
2021/12/21 01:05:29;;;;;;;11.75;3.92;;;2.80;96.80;;;;;;5077542;28;20111;-77
2021/12/21 01:07:58;;;;;;;9.85;4.13;;;2.80;96.80;;;;;;5077883;28;20073;-77
2021/12/21 01:13:09;;;;;;;10.82;4.07;;;2.70;96.70;;;;;;5095423;28;20144;-75
2021/12/21 01:18:11;;;;;;;7.18;3.80;;;2.70;96.80;;;;;;5095268;28;20101;-75
2021/12/21 01:20:42;;;;;;;10.35;3.75;;;2.70;96.80;;;;;;5095939;28;20028;-75
2021/12/21 01:31:53;;;;;;;6.53;4.10;;;2.70;96.80;;;;;;5095211;28;20453;-75
2021/12/21 01:36:38;;;;;;;7.95;4.18;;;2.70;96.80;;;;;;5095247;28;20475;-76
2021/12/21 01:39:47;;;;;;;12.15;4.10;;;2.70;96.80;;;;;;5095721;28;20021;-75
2021/12/21 01:42:15;;;;;;;11.05;4.30;;;2.70;96.80;;;;;;5094736;28;20386;-75
2021/12/21 01:49:54;;;;;;;9.13;4.63;;;2.60;96.80;;;;;;5095419;28;20027;-75
2021/12/21 01:52:25;;;;;;;8.32;4.50;;;2.60;96.80;;;;;;5076683;28;20028;-75
2021/12/21 01:54:51;;;;;;;8.20;4.55;;;2.60;96.80;;;;;;5077108;28;20020;-75
2021/12/21 01:57:17;;;;;;;11.30;4.07;;;2.60;96.80;;;;;;5076867;28;20032;-75
2021/12/21 01:59:45;;;;;;;7.68;3.45;;;2.60;96.80;;;;;;5076749;28;20012;-76
2021/12/21 02:02:13;;;;;;;8.27;4.20;;;2.60;96.90;;;;;;5095383;28;20050;-76
2021/12/21 02:04:41;;;;;;;6.38;3.67;;;2.60;96.90;;;;;;5076741;28;20020;-76
2021/12/21 02:07:08;;;;;;;8.20;3.90;;;2.50;96.80;;;;;;5095189;28;20067;-76
2021/12/21 02:09:40;;;;;;;8.35;3.88;;;2.50;96.80;;;;;;5077520;28;20024;-76
2021/12/21 02:12:09;;;;;;;8.10;4.38;;;2.50;96.80;;;;;;5076661;28;20455;-75
2021/12/21 02:14:36;;;;;;;9.40;4.13;;;2.50;96.80;;;;;;5076509;28;20455;-75
2021/12/21 02:19:40;;;;;;;8.10;3.38;;;2.50;96.90;;;;;;5094997;28;20072;-75
2021/12/21 02:22:13;;;;;;;8.15;4.03;;;2.50;96.90;;;;;;5076355;28;20460;-75
2021/12/21 02:25:05;;;;;;;11.43;4.30;;;2.50;96.80;;;;;;5075912;28;20115;-76
2021/12/21 02:27:40;;;;;;;8.10;4.43;;;2.50;96.80;;;;;;5093662;28;20028;-75
2021/12/21 02:30:07;;;;;;;9.20;4.13;;;2.50;96.70;;;;;;5076483;28;20070;-75
2021/12/21 02:32:32;;;;;;;8.70;4.03;;;2.40;96.70;;;;;;5094123;28;20036;-77
2021/12/21 02:34:58;;;;;;;6.68;3.72;;;2.40;96.80;;;;;;5094158;28;20043;-77
2021/12/21 02:37:24;;;;;;;7.40;4.25;;;2.40;96.80;;;;;;5076153;28;20024;-77
2021/12/21 02:39:49;;;;;;;8.85;4.32;;;2.40;96.80;;;;;;5093951;28;20017;-77
2021/12/21 02:42:15;;;;;;;9.02;3.70;;;2.40;96.80;;;;;;5094301;28;20038;-77
2021/12/21 02:44:48;;;;;;;8.13;3.85;;;2.40;96.80;;;;;;5076494;28;20027;-77
2021/12/21 02:47:13;;;;;;;6.55;4.25;;;2.30;96.80;;;;;;5093849;28;20028;-77
2021/12/21 02:49:39;;;;;;;7.72;3.85;;;2.30;96.80;;;;;;5075670;28;20028;-76
2021/12/21 02:52:05;;;;;;;7.80;4.13;;;2.30;96.80;;;;;;5075447;28;20040;-76
2021/12/21 02:54:31;;;;;;;5.43;3.67;;;2.30;96.80;;;;;;5075742;28;20020;-77
2021/12/21 02:56:56;;;;;;;6.97;4.35;;;2.30;96.70;;;;;;5075500;28;20076;-77
2021/12/21 02:59:22;;;;;;;10.98;4.25;;;2.30;96.80;;;;;;5075941;28;20023;-78
2021/12/21 03:01:48;;;;;;;6.82;4.07;;;2.30;96.80;;;;;;5094269;28;20050;-75
2021/12/21 03:04:14;;;;;;;5.63;3.58;;;2.30;96.70;;;;;;5093332;28;20360;-77
2021/12/21 03:09:54;;;;;;;7.55;3.83;;;2.30;96.80;;;;;;5030982;28;20070;-75
2021/12/21 03:14:47;;;;;;;7.95;3.88;;;2.20;96.70;;;;;;5064835;28;20502;-75
2021/12/21 03:17:13;;;;;;;7.88;3.75;;;2.20;96.70;;;;;;5093289;28;20024;-75
2021/12/21 03:19:40;;;;;;;8.85;4.43;;;2.20;96.70;;;;;;5093240;28;20044;-76
2021/12/21 03:22:07;;;;;;;12.48;4.03;;;2.20;96.70;;;;;;5093320;28;20028;-77
2021/12/21 03:24:34;;;;;;;9.00;4.20;;;2.20;96.70;;;;;;5094026;28;20031;-77
2021/12/21 03:26:59;;;;;;;7.70;4.18;;;2.10;96.70;;;;;;5093487;28;20020;-77
2021/12/21 03:29:26;;;;;;;6.53;4.00;;;2.20;96.70;;;;;;5093756;28;20019;-77
2021/12/21 03:31:52;;;;;;;10.50;3.90;;;2.10;96.70;;;;;;5075205;28;20475;-78
2021/12/21 03:34:17;;;;;;;7.40;4.43;;;2.10;96.80;;;;;;5075898;28;20028;-76
2021/12/21 03:36:43;;;;;;;13.88;4.25;;;2.10;96.80;;;;;;5093809;28;20366;-76
2021/12/21 03:39:16;;;;;;;10.13;4.50;;;2.10;97.10;;;;;;5093056;28;20027;-76
2021/12/21 03:41:46;;;;;;;9.63;5.07;;;2.10;96.90;;;;;;5075307;28;20031;-76
2021/12/21 03:44:12;;;;;;;10.32;4.45;;;2.10;96.90;;;;;;5075155;28;20024;-76
2021/12/21 03:46:47;;;;;;;6.60;4.13;;;2.10;96.90;;;;;;5093194;28;20020;-77
2021/12/21 03:52:00;;;;;;;10.75;4.30;;;2.10;96.90;;;;;;5093122;28;20037;-76
2021/12/21 03:54:26;;;;;;;8.40;4.43;;;2.10;96.80;;;;;;5093031;28;20078;-76
2021/12/21 03:56:52;;;;;;;12.30;4.90;;;2.10;96.80;;;;;;5075613;28;20432;-76
2021/12/21 03:59:19;;;;;;;9.20;4.72;;;2.10;96.90;;;;;;5078160;28;20056;-76
2021/12/21 04:01:46;;;;;;;8.95;4.72;;;2.10;96.90;;;;;;5078163;28;20036;-76
2021/12/21 04:04:12;;;;;;;9.20;4.30;;;2.10;96.90;;;;;;5079551;28;20047;-76
2021/12/21 04:06:38;;;;;;;12.38;4.70;;;2.10;96.90;;;;;;5097049;28;20068;-76
2021/12/21 04:09:06;;;;;;;9.07;5.60;;;2.10;96.90;;;;;;5096935;28;20024;-76
2021/12/21 04:11:33;;;;;;;9.10;5.45;;;2.10;96.90;;;;;;5078901;28;20036;-76
2021/12/21 04:13:59;;;;;;;10.13;5.28;;;2.10;96.90;;;;;;5078613;28;20442;-76
2021/12/21 04:16:25;;;;;;;11.23;5.05;;;2.10;96.90;;;;;;5078546;28;20023;-76
2021/12/21 04:18:51;;;;;;;11.43;5.00;;;2.00;96.90;;;;;;5074851;28;20045;-76
2021/12/21 04:21:17;;;;;;;8.43;5.40;;;2.10;97.00;;;;;;5075097;28;20075;-76
2021/12/21 04:23:43;;;;;;;9.32;4.97;;;2.00;97.20;;;;;;5076361;28;20070;-76
2021/12/21 04:26:11;;;;;;;9.55;4.80;;;2.00;97.00;;;;;;5074995;28;20154;-76
2021/12/21 04:28:37;;;;;;;11.23;5.55;;;2.00;97.00;;;;;;5076780;28;20021;-76
2021/12/21 04:31:04;;;;;;;14.02;6.07;;;2.00;96.90;;;;;;5082618;28;20076;-76
2021/12/21 04:33:30;;;;;;;10.40;5.43;;;2.00;97.00;;;;;;5078054;28;20068;-75
2021/12/21 04:35:56;;;;;;;11.73;5.55;;;2.00;97.00;;;;;;5082699;28;20024;-76
2021/12/21 04:38:24;;;;;;;10.20;5.63;;;2.00;97.00;;;;;;5075903;28;20111;-76
2021/12/21 04:41:04;;;;;;;9.93;5.57;;;2.00;97.00;;;;;;5074891;28;20021;-76
2021/12/21 04:43:30;;;;;;;11.60;5.60;;;2.00;96.90;;;;;;5075510;28;20391;-76
2021/12/21 04:45:56;;;;;;;11.45;5.70;;;2.00;96.90;;;;;;5074525;28;20115;-75
2021/12/21 04:48:22;;;;;;;10.52;5.80;;;2.10;97.00;;;;;;5075972;28;20060;-76
2021/12/21 04:50:48;;;;;;;14.40;6.13;;;2.00;96.90;;;;;;5074547;28;20415;-76
2021/12/21 04:53:14;;;;;;;10.88;6.07;;;2.00;96.90;;;;;;5075905;28;20043;-75
2021/12/21 04:55:40;;;;;;;10.57;5.43;;;2.00;96.90;;;;;;5076197;28;20042;-75
2021/12/21 04:58:06;;;;;;;8.05;5.22;;;2.00;96.90;;;;;;5074648;28;20457;-75
2021/12/21 05:00:33;;;;;;;14.65;6.10;;;2.00;96.90;;;;;;5076075;28;20185;-77
2021/12/21 05:02:59;;;;;;;12.25;5.60;;;2.00;96.90;;;;;;5074371;28;20123;-77
2021/12/21 05:05:25;;;;;;;12.95;5.93;;;2.00;97.00;;;;;;5075760;28;20024;-77
2021/12/21 05:08:04;;;;;;;9.48;5.55;;;1.90;97.00;;;;;;5074142;28;20116;-77
2021/12/21 05:10:31;;;;;;;12.40;5.85;;;2.00;97.00;;;;;;5074503;28;20025;-77
2021/12/21 05:12:56;;;;;;;9.07;5.90;;;1.90;97.00;;;;;;5074150;28;20036;-76
2021/12/21 05:15:22;;;;;;;12.77;6.13;;;1.90;96.90;;;;;;5076028;28;20361;-77
2021/12/21 05:17:48;;;;;;;9.07;5.15;;;1.90;96.90;;;;;;5073833;28;20135;-77
2021/12/21 05:20:14;;;;;;;12.45;5.80;;;1.90;96.90;;;;;;5074228;28;20123;-77
2021/12/21 05:22:39;;;;;;;8.45;5.38;;;1.90;96.90;;;;;;5075640;28;20028;-77
2021/12/21 05:25:05;;;;;;;14.45;5.95;;;1.90;96.90;;;;;;5074018;28;20025;-77
2021/12/21 05:27:31;;;;;;;10.65;4.80;;;1.90;96.90;;;;;;5074812;28;20078;-76
2021/12/21 05:29:57;;;;;;;11.27;5.63;;;1.90;96.90;;;;;;5075136;28;20456;-76
2021/12/21 05:32:23;;;;;;;11.98;6.13;;;1.90;96.90;;;;;;5075073;28;20058;-77
2021/12/21 05:34:48;;;;;;;9.50;5.88;;;1.80;96.90;;;;;;5075145;28;20028;-77
2021/12/21 05:37:14;;;;;;;11.60;6.20;;;1.80;96.90;;;;;;5075113;28;20357;-77
2021/12/21 05:39:54;;;;;;;12.43;7.20;;;1.80;96.90;;;;;;5075087;28;20031;-77
2021/12/21 05:42:19;;;;;;;14.93;7.60;;;1.80;96.90;;;;;;5075328;28;20025;-77
2021/12/21 05:44:45;;;;;;;15.90;6.68;;;1.80;96.90;;;;;;5074754;28;20036;-76
2021/12/21 05:47:11;;;;;;;13.68;6.68;;;1.80;96.90;;;;;;5074851;28;20052;-76
2021/12/21 05:49:36;;;;;;;10.38;5.60;;;1.80;96.90;;;;;;5073629;28;20108;-76
2021/12/21 05:52:03;;;;;;;12.02;6.00;;;1.70;96.90;;;;;;5074704;28;20032;-76
2021/12/21 05:54:28;;;;;;;13.93;6.15;;;1.70;96.90;;;;;;5075107;28;20020;-76
2021/12/21 05:56:54;;;;;;;11.20;5.68;;;1.70;96.90;;;;;;5073411;28;20013;-76
2021/12/21 05:59:20;;;;;;;10.48;5.70;;;1.70;96.90;;;;;;5072997;28;20484;-77
2021/12/21 06:01:46;;;;;;;12.68;6.18;;;1.70;96.90;;;;;;5073999;28;20025;-76
2021/12/21 06:04:12;;;;;;;18.67;7.50;;;1.70;96.90;;;;;;5073050;28;20047;-76
2021/12/21 06:06:38;;;;;;;12.10;5.20;;;1.70;96.80;;;;;;5074542;28;20081;-76
2021/12/21 06:09:08;;;;;;;9.43;5.63;;;1.70;96.80;;;;;;5073331;28;20024;-75
2021/12/21 06:11:39;;;;;;;11.25;6.07;;;1.70;96.90;;;;;;5074053;28;20029;-75
2021/12/21 06:14:21;;;;;;;12.95;5.20;;;1.60;96.80;;;;;;5073281;28;20127;-76
2021/12/21 06:26:03;;;;;;;12.98;6.60;;;1.60;96.80;;;;;;5094367;28;20027;-76
2021/12/21 06:27:56;;;;;;;14.93;5.18;;;1.60;96.80;;;;;;5075967;28;20067;-77
2021/12/21 06:30:21;;;;;;;11.32;5.97;;;1.50;96.80;;;;;;5093972;28;20020;-77
2021/12/21 06:32:47;;;;;;;10.43;5.25;;;1.50;96.80;;;;;;5075918;28;20452;-76
2021/12/21 06:35:14;;;;;;;12.98;6.25;;;1.50;96.80;;;;;;5076631;28;20051;-76
2021/12/21 06:37:40;;;;;;;11.13;5.35;;;1.50;96.90;;;;;;5094812;28;20069;-76
2021/12/21 06:40:06;;;;;;;11.98;5.68;;;1.50;96.90;;;;;;5095356;28;20023;-76
2021/12/21 06:42:33;;;;;;;9.90;5.80;;;1.50;96.90;;;;;;5080344;28;20030;-76
2021/12/21 06:45:00;;;;;;;11.20;5.75;;;1.50;96.90;;;;;;5099216;28;20050;-77
2021/12/21 06:52:55;;;;;;;10.48;6.18;;;1.50;96.90;;;;;;5094206;28;20070;-75
2021/12/21 06:55:21;;;;;;;11.48;6.30;;;1.50;96.90;;;;;;5093792;28;20456;-75
2021/12/21 06:57:47;;;;;;;12.73;5.85;;;1.50;96.90;;;;;;5075724;28;20112;-75
2021/12/21 07:00:14;;;;;;;10.55;5.40;;;1.50;96.90;;;;;;5093889;28;20082;-75
2021/12/21 07:02:41;;;;;;;13.30;6.30;;;1.50;96.90;;;;;;5093848;28;20103;-75
2021/12/21 07:05:08;;;;;;;12.38;6.30;;;1.50;96.80;;;;;;5094043;28;20023;-75
2021/12/21 07:07:35;;;;;;;11.85;6.43;;;1.50;96.80;;;;;;5094069;28;20513;-75
2021/12/21 07:10:04;;;;;;;11.45;6.38;;;1.40;96.90;;;;;;5075622;28;20016;-75
2021/12/21 07:20:24;;;;;;;10.55;4.90;;;1.40;96.90;;;;;;5093777;28;20027;-75
2021/12/21 07:22:50;;;;;;;14.52;5.72;;;1.40;96.90;;;;;;5093439;28;20028;-76
2021/12/21 07:25:15;;;;;;;12.68;6.43;;;1.40;96.90;;;;;;5075252;28;20161;-76
2021/12/21 07:27:41;;;;;;;11.18;6.60;;;1.40;96.90;;;;;;5093535;28;20024;-75
2021/12/21 07:30:07;;;;;;;11.38;6.30;;;1.40;96.90;;;;;;5075048;28;20020;-75
2021/12/21 07:32:34;;;;;;;12.60;6.20;;;1.40;96.90;;;;;;5092903;28;20032;-75
2021/12/21 07:35:00;;;;;;;14.90;7.07;;;1.40;96.90;;;;;;5093429;28;20028;-75
2021/12/21 07:37:25;;;;;;;12.27;6.70;;;1.40;97.00;;;;;;5093444;28;20399;-75
2021/12/21 07:39:52;;;;;;;10.88;5.93;;;1.40;97.00;;;;;;5075878;28;20024;-75
2021/12/21 07:42:19;;;;;;;11.15;6.32;;;1.40;97.00;;;;;;5074822;28;20023;-75
2021/12/21 07:44:45;;;;;;;10.07;6.65;;;1.40;97.00;;;;;;5093340;28;20027;-76
2021/12/21 07:47:11;;;;;;;9.02;5.93;;;1.40;97.00;;;;;;5075072;28;20016;-76
2021/12/21 07:49:37;;;;;;;10.68;5.97;;;1.40;97.00;;;;;;5074982;28;20024;-75
2021/12/21 07:52:07;;;;;;;8.27;5.25;;;1.40;97.00;;;;;;5075436;28;20020;-76
2021/12/21 07:54:33;;;;;;;10.73;5.97;;;1.40;97.00;;;;;;5074790;28;20046;-75
2021/12/21 07:56:59;;;;;;;19.30;6.57;;;1.40;97.20;;;;;;5092563;28;20020;-76
2021/12/21 07:59:25;;;;;;;11.20;5.75;;;1.40;97.00;;;;;;5075423;28;20077;-74
2021/12/21 08:01:51;;;;;;;15.05;6.10;;;1.40;97.00;;;;;;5092497;28;20479;-75
2021/12/21 08:04:17;;;;;;;12.77;6.60;;;1.40;96.90;;;;;;5092689;28;20040;-75
2021/12/21 08:06:46;;;;;;;12.50;6.70;;;1.40;96.90;;;;;;5092757;28;20457;-75
2021/12/21 08:09:11;;;;;;;13.98;6.97;;;1.40;97.00;;;;;;5093326;28;20024;-75
2021/12/21 08:14:06;;;;;;;10.95;6.22;;;1.50;97.00;;;;;;5092623;28;20024;-75
2021/12/21 08:16:32;;;;;;;11.13;5.60;;;1.50;97.00;;;;;;5092951;28;20100;-75
2021/12/21 08:18:58;;;;;;;10.18;5.80;;;1.50;97.10;;;;;;5092550;28;20091;-74
2021/12/21 08:21:25;;;;;;;13.38;7.20;;;1.50;97.10;;;;;;5092722;28;20055;-74
2021/12/21 08:23:52;;;;;;;12.80;6.78;;;1.50;97.10;;;;;;5092569;28;20452;-76
2021/12/21 08:26:18;;;;;;;10.98;5.90;;;1.50;97.00;;;;;;5092806;28;20095;-75
2021/12/21 08:28:44;;;;;;;11.82;6.35;;;1.50;97.00;;;;;;5093020;28;20400;-75
2021/12/21 08:31:12;;;;;;;14.10;7.07;;;1.60;97.00;;;;;;5092839;28;20064;-74
2021/12/21 08:33:40;;;;;;;10.93;6.18;;;1.60;97.00;;;;;;5074365;28;20388;-76
2021/12/21 08:36:08;;;;;;;13.90;7.20;;;1.60;97.00;;;;;;5074446;28;20060;-75
2021/12/21 08:38:37;;;;;;;12.60;7.53;;;1.60;97.00;;;;;;5092624;28;20024;-75
2021/12/21 08:41:03;;;;;;;12.57;7.50;;;1.60;97.00;;;;;;5074331;28;20371;-75
2021/12/21 08:43:31;;;;;;;12.65;6.60;;;1.60;97.00;;;;;;5092708;28;20087;-76
2021/12/21 08:45:56;;;;;;;10.75;6.22;;;1.60;97.00;;;;;;5078147;28;20115;-76
2021/12/21 08:48:23;;;;;;;13.88;7.07;;;1.70;97.00;;;;;;5078444;28;20081;-75
2021/12/21 08:50:53;;;;;;;10.80;6.30;;;1.70;97.00;;;;;;5097142;28;20028;-76
2021/12/21 08:53:18;;;;;;;15.07;7.55;;;1.70;97.00;;;;;;5097272;28;20020;-76
2021/12/21 08:55:45;;;;;;;12.10;7.13;;;1.70;97.00;;;;;;5081994;28;20031;-75
2021/12/21 08:58:12;;;;;;;11.43;6.43;;;1.80;97.00;;;;;;5101588;28;20107;-76
2021/12/21 09:00:38;;;;;;;11.30;5.95;;;1.80;97.00;;;;;;5096306;28;20020;-76
2021/12/21 09:03:05;;;;;;;15.45;7.60;;;1.80;97.00;;;;;;5095725;28;20023;-76
2021/12/21 09:05:31;;;;;;;13.80;6.57;;;1.80;97.00;;;;;;5096046;28;20081;-76
2021/12/21 09:07:59;;;;;;;13.35;7.00;;;1.90;97.00;;;;;;5096039;28;20023;-76
2021/12/21 09:10:27;;;;;;;14.55;7.13;;;1.90;97.00;;;;;;5095813;28;20024;-76
2021/12/21 09:12:52;;;;;;;13.77;7.43;;;1.90;96.90;;;;;;5096256;28;20064;-76
2021/12/21 09:15:19;;;;;;;13.35;7.35;;;2.00;96.90;;;;;;5077722;28;20070;-76
2021/12/21 09:17:46;;;;;;;13.93;7.18;;;2.00;96.90;;;;;;5096398;28;20134;-73
2021/12/21 09:20:14;;;;;;;13.65;7.05;;;2.10;96.90;;;;;;5096196;28;20027;-76
2021/12/21 09:22:41;;;;;;;15.13;7.35;;;2.10;96.90;;;;;;5095943;28;20028;-74
2021/12/21 09:25:08;;;;;;;17.80;6.82;;;2.10;96.90;;;;;;5095513;28;20020;-77
2021/12/21 09:27:35;;;;;;;11.27;6.60;;;2.10;96.90;;;;;;5077221;28;20032;-76
2021/12/21 09:30:02;;;;;;;12.55;6.50;;;2.20;96.90;;;;;;5095566;28;20028;-74
2021/12/21 09:32:27;;;;;;;18.65;7.50;;;2.10;96.80;;;;;;5095149;28;20032;-75
2021/12/21 09:34:53;;;;;;;13.63;6.38;;;2.20;96.80;;;;;;5095698;28;20024;-75
2021/12/21 09:37:20;;;;;;;13.13;7.35;;;2.20;96.80;;;;;;5094916;28;20357;-74
2021/12/21 09:39:56;;;;;;;14.55;7.70;;;2.30;96.80;;;;;;5077621;28;20028;-75
2021/12/21 09:42:30;;;;;;;13.48;7.13;;;2.30;96.80;;;;;;5095042;28;20020;-74
2021/12/21 09:44:58;;;;;;;13.75;6.75;;;2.30;96.80;;;;;;5077225;28;20024;-75
2021/12/21 09:47:24;;;;;;;13.52;7.15;;;2.30;96.80;;;;;;5095538;28;20020;-75
2021/12/21 09:49:50;;;;;;;14.27;6.90;;;2.40;96.80;;;;;;5095142;28;20028;-75
2021/12/21 09:52:29;;;;;;;12.02;7.15;;;2.40;96.80;;;;;;5076723;28;20077;-75
2021/12/21 09:54:55;;;;;;;13.50;7.22;;;2.40;96.80;;;;;;5094793;28;20024;-75
2021/12/21 09:57:21;;;;;;;15.57;8.75;;;2.40;96.70;;;;;;5094076;28;20086;-75
2021/12/21 09:59:49;;;;;;;13.98;7.70;;;2.40;96.70;;;;;;5094989;28;20012;-74
2021/12/21 10:02:17;;;;;;;18.48;8.35;;;2.50;96.70;;;;;;5095213;28;20077;-75
2021/12/21 10:04:51;;;;;;;12.80;6.55;;;2.50;96.70;;;;;;5076000;28;20173;-75
2021/12/21 10:07:18;;;;;;;16.10;7.85;;;2.50;96.60;;;;;;5094760;28;20024;-75
2021/12/21 10:09:46;;;;;;;17.42;9.38;;;2.60;96.70;;;;;;5076373;28;20020;-75
2021/12/21 10:12:29;;;;;;;16.63;8.48;;;2.60;96.60;;;;;;5076141;28;20169;-75
2021/12/21 10:15:20;;;;;;;20.60;9.85;;;2.60;96.60;;;;;;5094522;28;20024;-75
2021/12/21 10:18:04;;;;;;;14.68;7.40;;;2.60;96.60;;;;;;5094668;28;20461;-75
2021/12/21 10:20:41;;;;;;;16.75;8.15;;;2.70;96.60;;;;;;5090861;28;20468;-75
2021/12/21 10:23:25;;;;;;;17.55;8.55;;;2.70;96.60;;;;;;5094465;28;20020;-75
2021/12/21 10:26:04;;;;;;;22.58;9.60;;;2.70;96.60;;;;;;5094350;28;20027;-75
2021/12/21 10:28:40;;;;;;;21.50;11.00;;;2.70;96.50;;;;;;5076433;28;20047;-74
2021/12/21 10:31:27;;;;;;;17.15;10.00;;;2.70;96.50;;;;;;5094194;28;20032;-75
2021/12/21 10:33:54;;;;;;;20.00;10.63;;;2.70;96.50;;;;;;5076471;28;20414;-74
2021/12/21 10:36:21;;;;;;;19.40;9.77;;;2.80;96.50;;;;;;5075844;28;20372;-75
2021/12/21 10:38:51;;;;;;;21.88;9.23;;;2.80;96.50;;;;;;5094137;28;20082;-75
2021/12/21 10:41:20;;;;;;;20.05;9.88;;;2.80;96.80;;;;;;5076037;28;20437;-75
2021/12/21 10:44:16;;;;;;;17.08;9.63;;;2.90;96.50;;;;;;5075644;28;20020;-75
2021/12/21 10:46:48;;;;;;;19.30;9.68;;;2.90;96.50;;;;;;5073254;28;20032;-75
2021/12/21 10:49:15;;;;;;;23.17;10.52;;;3.00;96.70;;;;;;5093944;28;20031;-75
2021/12/21 10:51:55;;;;;;;21.20;10.55;;;3.10;96.50;;;;;;5093404;28;20384;-75
2021/12/21 10:54:39;;;;;;;17.50;10.05;;;3.20;96.50;;;;;;5093686;28;20110;-75
2021/12/21 10:57:11;;;;;;;18.77;9.80;;;3.30;96.50;;;;;;5075653;28;20048;-75
2021/12/21 10:59:41;;;;;;;16.65;7.72;;;3.30;96.40;;;;;;5094040;28;20091;-75
2021/12/21 11:02:13;;;;;;;21.05;10.63;;;3.40;96.30;;;;;;5095558;28;20024;-74
2021/12/21 11:04:42;;;;;;;19.20;10.55;;;3.50;96.20;;;;;;5093812;28;20024;-74
2021/12/21 11:07:27;;;;;;;21.00;11.25;;;3.60;96.20;;;;;;5077168;28;20012;-75
2021/12/21 11:10:20;;;;;;;17.42;10.07;;;3.60;96.10;;;;;;5093738;28;20031;-76
2021/12/21 11:12:47;;;;;;;17.65;9.02;;;3.70;96.10;;;;;;5093911;28;20028;-75
2021/12/21 11:15:34;;;;;;;17.75;11.18;;;3.80;96.10;;;;;;5075479;28;20119;-77
2021/12/21 11:18:04;;;;;;;21.42;11.05;;;3.90;96.00;;;;;;5092554;28;20498;-76
2021/12/21 11:20:31;;;;;;;21.97;11.53;;;4.00;95.90;;;;;;5075530;28;20337;-76
2021/12/21 11:22:57;;;;;;;20.30;11.77;;;4.20;95.90;;;;;;5093474;28;20032;-74
2021/12/21 11:25:23;;;;;;;18.75;11.75;;;4.30;95.90;;;;;;5075022;28;20027;-73
2021/12/21 11:27:50;;;;;;;21.25;11.65;;;4.50;95.80;;;;;;5075019;28;20517;-74
2021/12/21 11:30:24;;;;;;;18.85;11.13;;;4.60;95.80;;;;;;5074876;28;20074;-75
2021/12/21 11:32:52;;;;;;;18.95;10.52;;;4.70;95.70;;;;;;5093131;28;20506;-75
2021/12/21 11:37:50;;;;;;;18.55;9.65;;;4.80;95.60;;;;;;5092920;28;20483;-75
2021/12/21 11:40:21;;;;;;;18.48;11.15;;;4.90;95.60;;;;;;5092709;28;20024;-75
2021/12/21 11:42:49;;;;;;;;;;;5.00;95.50;;;;;;5093550;28;20028;-75
2021/12/21 11:45:22;;;;;;;24.70;11.65;;;5.00;95.50;;;;;;5074938;28;19926;-75
2021/12/21 11:48:17;;;;;;;20.92;11.02;;;5.00;95.40;;;;;;5074940;28;20047;-75
2021/12/21 11:50:48;;;;;;;19.98;10.77;;;5.00;95.40;;;;;;5093488;28;20104;-75
2021/12/21 11:53:17;;;;;;;19.05;10.63;;;5.00;95.50;;;;;;5092867;28;20032;-76
2021/12/21 11:55:47;;;;;;;17.75;9.63;;;5.10;95.50;;;;;;5092524;28;20415;-76
2021/12/21 11:58:17;;;;;;;17.67;9.43;;;5.00;95.50;;;;;;5074902;28;20108;-76
2021/12/21 12:01:02;;;;;;;19.17;10.68;;;5.00;95.50;;;;;;5093419;28;20049;-76
2021/12/21 12:03:31;;;;;;;21.77;10.00;;;5.10;95.50;;;;;;5092992;28;20023;-76
2021/12/21 12:05:58;;;;;;;18.23;11.05;;;5.00;95.50;;;;;;5093045;28;20456;-77
2021/12/21 12:08:28;;;;;;;16.52;9.85;;;5.00;95.40;;;;;;5092442;28;20048;-75
2021/12/21 12:11:00;;;;;;;17.92;9.20;;;5.00;95.40;;;;;;5092734;28;20020;-76
2021/12/21 12:13:36;;;;;;;16.15;9.13;;;5.00;95.40;;;;;;5092657;28;20024;-77
2021/12/21 12:16:08;;;;;;;19.95;10.07;;;5.10;95.30;;;;;;5092784;28;20073;-76
2021/12/21 12:18:45;;;;;;;16.90;9.18;;;5.00;95.60;;;;;;5074595;28;20441;-75
2021/12/21 12:21:19;;;;;;;15.43;9.50;;;4.90;95.30;;;;;;5096565;28;20028;-75
2021/12/21 12:23:53;;;;;;;18.08;9.80;;;4.90;95.30;;;;;;5097176;28;20029;-75
2021/12/21 12:26:33;;;;;;;18.23;9.75;;;4.90;95.30;;;;;;5078311;28;20040;-75
2021/12/21 12:29:19;;;;;;;19.00;9.57;;;4.90;95.30;;;;;;5078935;28;20082;-75
2021/12/21 12:32:00;;;;;;;19.92;9.68;;;4.90;95.30;;;;;;5078528;28;20432;-75
2021/12/21 12:34:31;;;;;;;18.07;10.87;;;4.80;95.30;;;;;;5078317;28;20024;-75
2021/12/21 12:36:58;;;;;;;16.80;10.13;;;4.70;95.30;;;;;;5096390;28;20262;-75
2021/12/21 12:39:33;;;;;;;19.90;9.73;;;4.70;95.30;;;;;;5078122;28;20514;-75
2021/12/21 12:42:11;;;;;;;21.60;10.90;;;4.70;95.30;;;;;;5078103;28;20081;-76
2021/12/21 12:44:40;;;;;;;20.40;9.25;;;4.70;95.30;;;;;;5077783;28;20031;-75
2021/12/21 12:47:09;;;;;;;24.55;11.70;;;4.70;95.30;;;;;;5096069;28;20437;-75
2021/12/21 12:49:40;;;;;;;24.52;11.55;;;4.70;95.20;;;;;;5096422;28;20025;-75
2021/12/21 12:52:28;;;;;;;21.92;9.60;;;4.80;95.20;;;;;;5096028;28;20028;-76
2021/12/21 12:55:00;;;;;;;22.23;11.10;;;4.80;95.20;;;;;;5077683;28;20126;-75
2021/12/21 12:57:36;;;;;;;21.38;10.73;;;4.70;95.20;;;;;;5077753;28;20016;-76
2021/12/21 13:00:30;;;;;;;21.83;8.60;;;4.70;95.20;;;;;;5096015;28;20020;-75
2021/12/21 13:02:56;;;;;;;18.23;8.10;;;4.60;95.20;;;;;;5074121;28;20056;-77
2021/12/21 13:05:25;;;;;;;16.55;7.90;;;4.60;95.20;;;;;;5077889;28;20066;-77
2021/12/21 13:07:51;;;;;;;15.77;8.05;;;4.60;95.40;;;;;;5077638;28;20047;-76
2021/12/21 13:10:17;;;;;;;16.17;7.07;;;4.50;95.20;;;;;;5096120;28;20021;-76
2021/12/21 13:12:43;;;;;;;16.77;6.82;;;4.50;95.20;;;;;;5078253;28;20119;-76
2021/12/21 13:15:08;;;;;;;22.10;10.52;;;4.50;95.20;;;;;;5078788;28;20069;-76
2021/12/21 13:17:35;;;;;;;21.75;10.95;;;4.50;95.20;;;;;;5079060;28;20464;-75
2021/12/21 13:20:02;;;;;;;19.13;9.25;;;4.50;95.20;;;;;;5078200;28;20044;-76
2021/12/21 13:22:28;;;;;;;18.17;8.05;;;4.40;95.20;;;;;;5095314;28;20020;-75
2021/12/21 13:24:54;;;;;;;14.07;7.38;;;4.50;95.30;;;;;;5096117;28;20024;-76
2021/12/21 13:27:23;;;;;;;13.52;6.47;;;4.40;95.20;;;;;;5077495;28;20024;-77
2021/12/21 13:29:50;;;;;;;13.23;6.95;;;4.40;95.30;;;;;;5076655;28;20322;-74
2021/12/21 13:32:18;;;;;;;16.52;8.25;;;4.40;95.30;;;;;;5094329;28;20468;-74
2021/12/21 13:34:46;;;;;;;19.23;7.00;;;4.40;95.30;;;;;;5077119;28;20369;-75
2021/12/21 13:37:18;;;;;;;17.52;7.47;;;4.30;95.30;;;;;;5095208;28;20028;-75
2021/12/21 13:39:46;;;;;;;18.25;8.00;;;4.30;95.30;;;;;;5076787;28;20026;-75
2021/12/21 13:42:15;;;;;;;14.68;8.32;;;4.30;95.30;;;;;;5094812;28;20448;-76
2021/12/21 13:44:56;;;;;;;13.50;6.55;;;4.30;95.30;;;;;;5094982;28;20031;-75
2021/12/21 13:47:30;;;;;;;15.18;6.03;;;4.30;95.30;;;;;;5094937;28;20024;-75
2021/12/21 13:50:10;;;;;;;13.77;6.43;;;4.30;95.40;;;;;;5094947;28;20027;-75
2021/12/21 13:52:40;;;;;;;12.10;6.15;;;4.30;95.40;;;;;;5076854;28;20036;-75
2021/12/21 13:55:18;;;;;;;12.30;6.55;;;4.30;95.40;;;;;;5076657;28;20020;-75
2021/12/21 13:57:44;;;;;;;11.10;6.25;;;4.30;95.40;;;;;;5094638;28;20103;-75
2021/12/21 14:00:10;;;;;;;12.32;6.43;;;4.30;95.40;;;;;;5076572;28;20052;-75
2021/12/21 14:02:37;;;;;;;12.10;6.35;;;4.20;95.40;;;;;;5076819;28;20039;-75
2021/12/21 14:05:06;;;;;;;9.23;6.05;;;4.20;95.40;;;;;;5076970;28;20043;-75
2021/12/21 14:07:39;;;;;;;10.30;5.95;;;4.20;95.40;;;;;;5076459;28;20020;-75